METAR Data
IDs: Format: Raw Decoded Include TAF

Data at: 2133 UTC 22 Sep 2020

KPVB 222115Z AUTO 21007KT 7SM CLR 25/13 A3009 RMK AO1 T02480134
KPVB 222055Z AUTO 22004KT 10SM CLR 25/14 A3010 RMK AO1 T02490137
KPVB 222035Z AUTO 20006KT 4SM CLR 25/14 A3010 RMK AO1 T02520137
KPVB 222015Z AUTO 22003KT 10SM CLR 25/13 A3011 RMK AO1 T02540128
KPVB 221955Z AUTO 23007KT 10SM CLR 26/13 A3012 RMK AO1 T02550125
KPVB 221935Z AUTO 21007KT 10SM CLR 26/14 A3012 RMK AO1 T02560137
KPVB 221915Z AUTO 22006KT 10SM CLR 26/14 A3013 RMK AO1 T02550138
KPVB 221855Z AUTO 21005KT 10SM CLR 25/15 A3014 RMK AO1 T02490147
KPVB 221835Z AUTO 19006KT 10SM CLR 25/15 A3014 RMK AO1 T02470149
KPVB 221815Z AUTO 18005KT 10SM CLR 25/15 A3015 RMK AO1 T02460148
KPVB 221755Z AUTO 26003KT 10SM CLR 24/15 A3016 RMK AO1 T02420148 10242 20120
KPVB 221735Z AUTO 00000KT 10SM CLR 24/15 A3017 RMK AO1 T02390149
KPVB 221715Z AUTO 20005KT 10SM CLR 24/15 A3018 RMK AO1 T02350147
KPVB 221655Z AUTO 22006KT 10SM CLR 23/15 A3018 RMK AO1 T02300146
KPVB 221635Z AUTO 22003KT 10SM CLR 23/15 A3019 RMK AO1 T02250150
KPVB 221615Z AUTO 22004KT 10SM CLR 22/15 A3019 RMK AO1 T02160153
KPVB 221555Z AUTO 00000KT 10SM CLR 20/15 A3019 RMK AO1 T02030151
KPVB 221535Z AUTO 21006KT 10SM CLR 20/15 A3019 RMK AO1 T01950151
KPVB 221515Z AUTO 19005KT 10SM SCT090 SCT110 17/15 A3020 RMK AO1 T01700146
KPVB 221455Z AUTO 00000KT 10SM SCT090 BKN110 17/14 A3021 RMK AO1 T01700144
KPVB 221435Z AUTO 21004KT 10SM CLR 17/14 A3020 RMK AO1 T01740143
KPVB 221415Z AUTO 24003KT 10SM CLR 17/14 A3020 RMK AO1 T01700140
KPVB 221355Z AUTO 19004KT 10SM CLR 16/14 A3020 RMK AO1 T01610140
KPVB 221335Z AUTO 17004KT 10SM CLR 15/14 A3020 RMK AO1 T01470136
KPVB 221315Z AUTO 18004KT 10SM CLR 15/14 A3020 RMK AO1 T01450135
KPVB 221255Z AUTO 19004KT 10SM CLR 14/13 A3021 RMK AO1 T01360130
KPVB 221235Z AUTO 17003KT 10SM CLR 13/13 A3021 RMK AO1 T01260126
KPVB 221215Z AUTO 16005KT 10SM CLR 12/12 A3020 RMK AO1 T01220122
KPVB 221155Z AUTO 16005KT 10SM CLR 12/12 A3021 RMK AO1 T01230120 10142 20123
KPVB 221135Z AUTO 15007KT 10SM CLR 13/12 A3020 RMK AO1 T01300123
KPVB 221115Z AUTO 15006KT 10SM CLR 13/13 A3021 RMK AO1 T01300125
KPVB 221055Z AUTO 14006KT 10SM CLR 13/12 A3021 RMK AO1 T01260123
KPVB 221035Z AUTO 13004KT 10SM CLR 13/12 A3020 RMK AO1 T01290122
KPVB 221015Z AUTO 15004KT 10SM CLR 13/12 A3021 RMK AO1 T01310124
KPVB 220955Z AUTO 00000KT 10SM CLR 14/13 A3021 RMK AO1 T01350125
KPVB 220935Z AUTO 00000KT 10SM CLR 14/12 A3021 RMK AO1 T01410124
KPVB 220915Z AUTO 00000KT 10SM CLR 14/12 A3020 RMK AO1 T01380123
KPVB 220855Z AUTO 18005KT 10SM CLR 14/12 A3020 RMK AO1 T01410123
KPVB 220835Z AUTO 17004KT 10SM CLR 14/12 A3020 RMK AO1 T01380123
KPVB 220815Z AUTO 18003KT 10SM CLR 14/12 A3020 RMK AO1 T01400122
KPVB 220755Z AUTO 18003KT 10SM CLR 14/12 A3020 RMK AO1 T01350122
KPVB 220735Z AUTO 19004KT 10SM CLR 14/12 A3021 RMK AO1 T01360120
KPVB 220715Z AUTO 20004KT 10SM CLR 14/12 A3021 RMK AO1 T01350118
KPVB 220655Z AUTO 19003KT 10SM CLR 14/12 A3021 RMK AO1 T01360117
KPVB 220635Z AUTO 18003KT 10SM CLR 13/12 A3021 RMK AO1 T01300115
KPVB 220615Z AUTO 18005KT 10SM CLR 14/12 A3021 RMK AO1 T01400116
KPVB 220555Z AUTO 20005KT 10SM CLR 14/12 A3022 RMK AO1 T01390115 10178 20139 402320072
KPVB 220535Z AUTO 19003KT 10SM CLR 15/11 A3021 RMK AO1 T01470112
KPVB 220515Z AUTO 18007KT 10SM CLR 15/11 A3021 RMK AO1 T01540112
KPVB 220455Z AUTO 17008KT 10SM CLR 16/11 A3021 RMK AO1 T01560111
KPVB 220435Z AUTO 17008KT 10SM CLR 16/11 A3022 RMK AO1 T01550113
KPVB 220415Z AUTO 17006KT 10SM CLR 16/11 A3022 RMK AO1 T01550113
KPVB 220355Z AUTO 19005KT 10SM CLR 16/11 A3022 RMK AO1 T01580112
KPVB 220335Z AUTO 18006KT 10SM CLR 16/11 A3022 RMK AO1 T01600111
KPVB 220315Z AUTO 17006KT 10SM CLR 16/11 A3022 RMK AO1 T01610110
KPVB 220255Z AUTO 16007KT 10SM CLR 16/11 A3021 RMK AO1 T01560111
KPVB 220235Z AUTO 16007KT 10SM CLR 16/11 A3021 RMK AO1 T01550111
KPVB 220215Z AUTO 16006KT 10SM CLR 15/11 A3021 RMK AO1 T01500109
KPVB 220155Z AUTO 15005KT 10SM CLR 15/11 A3021 RMK AO1 T01520111
KPVB 220135Z AUTO 15007KT 10SM CLR 15/11 A3020 RMK AO1 T01530111
KPVB 220115Z AUTO 15006KT 10SM CLR 16/11 A3020 RMK AO1 T01550112
KPVB 220055Z AUTO 15006KT 10SM CLR 16/11 A3019 RMK AO1 T01600112
KPVB 220035Z AUTO 15006KT 10SM CLR 17/11 A3020 RMK AO1 T01650111
KPVB 220015Z AUTO 14006KT 10SM CLR 17/11 A3020 RMK AO1 T01700112
KPVB 212355Z AUTO 13005KT 10SM CLR 18/11 A3020 RMK AO1 T01780113 10232 20177
KPVB 212335Z AUTO 15005KT 10SM CLR 19/11 A3021 RMK AO1 T01860112
KPVB 212315Z AUTO 15006KT 10SM CLR 20/10 A3021 RMK AO1 T02040099
KPVB 212255Z AUTO 17007KT 10SM CLR 22/09 A3022 RMK AO1 T02150094
KPVB 212235Z AUTO 17009KT 10SM CLR 22/09 A3021 RMK AO1 T02200092
KPVB 212215Z AUTO 17008KT 10SM CLR 22/09 A3022 RMK AO1 T02240091
KPVB 212155Z AUTO 17009KT 10SM CLR 23/09 A3022 RMK AO1 T02270089
KPVB 212135Z AUTO 17010KT 10SM CLR 23/10 A3023 RMK AO1 T02300095
KPVB 212115Z AUTO 17011KT 10SM CLR 23/10 A3023 RMK AO1 T02300096
KPVB 212055Z AUTO 17011KT 10SM CLR 23/10 A3023 RMK AO1 T02300097
KPVB 212035Z AUTO 15011KT 10SM CLR 23/10 A3024 RMK AO1 T02310100
KPVB 212015Z AUTO 19011G15KT 10SM CLR 23/10 A3025 RMK AO1 T02290096
KPVB 211955Z AUTO 17007KT 10SM CLR 23/10 A3025 RMK AO1 T02280104
KPVB 211935Z AUTO 19010KT 10SM CLR 23/10 A3026 RMK AO1 T02290100
KPVB 211915Z AUTO 18009G15KT 10SM CLR 23/10 A3027 RMK AO1 T02250104
KPVB 211855Z AUTO 19009KT 10SM CLR 22/10 A3028 RMK AO1 T02210102
KPVB 211835Z AUTO 18008KT 10SM CLR 22/11 A3029 RMK AO1 T02200105
KPVB 211815Z AUTO 18008G14KT 150V210 10SM CLR 22/11 A3029 RMK AO1 T02170105
KPVB 211755Z AUTO 19009KT 10SM CLR 21/10 A3030 RMK AO1 T02110102 10211 20080
KPVB 211735Z AUTO 17011G14KT 10SM CLR 21/10 A3031 RMK AO1 T02070099
KPVB 211715Z AUTO 18009KT 10SM CLR 21/10 A3032 RMK AO1 T02050096
KPVB 211655Z AUTO 19010KT 10SM CLR 20/09 A3032 RMK AO1 T01990092
KPVB 211635Z AUTO 18008KT 10SM CLR 19/09 A3032 RMK AO1 T01910089
KPVB 211615Z AUTO 18010KT 10SM CLR 19/09 A3033 RMK AO1 T01850088
KPVB 211555Z AUTO 18011KT 10SM CLR 18/09 A3034 RMK AO1 T01780086
KPVB 211535Z AUTO 18009KT 10SM CLR 17/08 A3034 RMK AO1 T01700083
KPVB 211515Z AUTO 19008KT 10SM CLR 16/09 A3035 RMK AO1 T01640085
KPVB 211455Z AUTO 17010KT 10SM CLR 15/09 A3034 RMK AO1 T01540088
KPVB 211435Z AUTO 17007KT 10SM CLR 14/09 A3034 RMK AO1 T01430085
KPVB 211415Z AUTO 17006KT 10SM CLR 13/09 A3034 RMK AO1 T01290085
KPVB 211355Z AUTO 15008KT 10SM CLR 12/08 A3034 RMK AO1 T01200080
KPVB 211335Z AUTO 14007KT 10SM CLR 11/08 A3034 RMK AO1 T01100076
KPVB 211315Z AUTO 15004KT 10SM CLR 10/07 A3034 RMK AO1 T01000071
KPVB 211255Z AUTO 14006KT 10SM CLR 10/07 A3034 RMK AO1 T00950065
KPVB 211235Z AUTO 13003KT 10SM CLR 09/06 A3034 RMK AO1 T00870061
KPVB 211215Z AUTO 11003KT 10SM CLR 09/06 A3034 RMK AO1 T00860059
KPVB 211155Z AUTO 10003KT 10SM CLR 08/06 A3034 RMK AO1 T00800059 10117 20072
KPVB 211135Z AUTO 00000KT 10SM CLR 07/06 A3033 RMK AO1 T00730060
KPVB 211115Z AUTO 13003KT 10SM CLR 09/05 A3032 RMK AO1 T00910052
KPVB 211055Z AUTO 13005KT 10SM CLR 09/05 A3032 RMK AO1 T00900052
KPVB 211035Z AUTO 14006KT 10SM CLR 09/05 A3032 RMK AO1 T00940051
KPVB 211015Z AUTO 13005KT 10SM CLR 09/05 A3032 RMK AO1 T00920051
KPVB 210955Z AUTO 13004KT 10SM CLR 10/05 A3032 RMK AO1 T00990050
KPVB 210935Z AUTO 13005KT 10SM CLR 11/05 A3032 RMK AO1 T01060050